EGGP

Liverpool John Lennon Airport

Liverpool, United Kingdom
TAF EGGP 222257Z 2300/2324 17010KT 9999 SCT030 TEMPO 2304/2315 5000 -RADZ BKN012 PROB40 TEMPO 2304/2324 19017G27KT PROB30 TEMPO 2305/2310 3000 RADZ BKN008
Issued Valid From Valid To
Jan-22 @ 22:57 UTC
(3 hours ago)
Jan-23 @ 00:00 UTC
(2 hours ago)
Jan-24 @ 00:00 UTC
(in 22 hours)
Jan-23 @ 00:00 -Jan-24 @ 00:00
Wind Visibility Clouds
170° at 10 knots 10,000+ meters
  • Scattered at 3,000' AGL
Temporary Jan-23 @ 04:00 -Jan-23 @ 15:00
Visibility Clouds Conditions
5,005 meters
  • Broken at 1,200' AGL
  • Light Rain
  • Light Drizzle
Probability 40% Temporary Jan-23 @ 04:00 -Jan-24 @ 00:00
Wind
190° at 17 knots
 Gusting to 27 knots
Probability 30% Temporary Jan-23 @ 05:00 -Jan-23 @ 10:00
Visibility Clouds Conditions
2,993 meters
  • Broken at 800' AGL
  • Rain
  • Drizzle
TAF EGGP 222257Z 2300/2324 17010KT 9999 SCT030 TEMPO 2304/2315 5000 -RADZ BKN012 PROB40 TEMPO 2304/2324 19017G27KT PROB30 TEMPO 2305/2310 3000 RADZ BKN008
Issued Jan-22 @ 22:57 UTC
(3 hours ago)
Valid From Jan-23 @ 00:00 UTC
(2 hours ago)
Valid To Jan-24 @ 00:00 UTC
(in 22 hours)
Jan-23 @ 00:00 - Jan-24 @ 00:00
Wind Visibility
170° at 10 knots 10,000+ meters
Clouds
  • Scattered at 3,000' AGL
Temporary Jan-23 @ 04:00 - Jan-23 @ 15:00
Clouds
  • Broken at 1,200' AGL
Conditions
  • Light Rain
  • Light Drizzle
Probability 40% Temporary Jan-23 @ 04:00 - Jan-24 @ 00:00
Wind
190° at 17 knots
 Gusting to 27 knots
Probability 30% Temporary Jan-23 @ 05:00 - Jan-23 @ 10:00
Clouds
  • Broken at 800' AGL
Conditions
  • Rain
  • Drizzle